sensor_id;sensor_type;location;lat;lon;timestamp;temperature;humidity
11446;DHT22;5779;64.178;15.432;2023-05-28T00:01:35;8.90;99.90
11446;DHT22;5779;64.178;15.432;2023-05-28T00:04:23;8.90;99.90
11446;DHT22;5779;64.178;15.432;2023-05-28T00:07:10;8.80;99.90
11446;DHT22;5779;64.178;15.432;2023-05-28T00:09:57;8.90;99.90
11446;DHT22;5779;64.178;15.432;2023-05-28T00:12:44;8.50;99.90
11446;DHT22;5779;64.178;15.432;2023-05-28T00:15:31;7.60;99.90
11446;DHT22;5779;64.178;15.432;2023-05-28T00:18:17;7.40;99.90
11446;DHT22;5779;64.178;15.432;2023-05-28T00:21:06;7.20;99.90
11446;DHT22;5779;64.178;15.432;2023-05-28T00:23:53;7.00;99.90
11446;DHT22;5779;64.178;15.432;2023-05-28T00:26:40;6.90;99.90
11446;DHT22;5779;64.178;15.432;2023-05-28T00:29:26;6.80;99.90
11446;DHT22;5779;64.178;15.432;2023-05-28T00:32:13;6.70;99.90
11446;DHT22;5779;64.178;15.432;2023-05-28T00:35:00;6.60;99.90
11446;DHT22;5779;64.178;15.432;2023-05-28T00:37:48;6.50;99.90
11446;DHT22;5779;64.178;15.432;2023-05-28T00:40:38;6.40;99.90
11446;DHT22;5779;64.178;15.432;2023-05-28T00:43:28;6.30;99.90
11446;DHT22;5779;64.178;15.432;2023-05-28T00:46:18;6.30;99.90
11446;DHT22;5779;64.178;15.432;2023-05-28T00:49:07;6.20;99.90
11446;DHT22;5779;64.178;15.432;2023-05-28T00:51:54;6.10;99.90
11446;DHT22;5779;64.178;15.432;2023-05-28T00:54:43;6.00;99.90
11446;DHT22;5779;64.178;15.432;2023-05-28T00:57:30;6.00;99.90
11446;DHT22;5779;64.178;15.432;2023-05-28T01:00:17;5.90;99.90
11446;DHT22;5779;64.178;15.432;2023-05-28T01:03:04;5.90;99.90
11446;DHT22;5779;64.178;15.432;2023-05-28T01:05:51;5.90;99.90
11446;DHT22;5779;64.178;15.432;2023-05-28T01:08:39;5.90;99.90
11446;DHT22;5779;64.178;15.432;2023-05-28T01:11:27;6.00;99.90
11446;DHT22;5779;64.178;15.432;2023-05-28T01:14:15;5.90;99.90
11446;DHT22;5779;64.178;15.432;2023-05-28T01:17:02;6.00;99.90
11446;DHT22;5779;64.178;15.432;2023-05-28T01:19:48;5.90;99.90
11446;DHT22;5779;64.178;15.432;2023-05-28T01:22:37;5.90;99.90
11446;DHT22;5779;64.178;15.432;2023-05-28T01:25:27;5.90;99.90
11446;DHT22;5779;64.178;15.432;2023-05-28T01:28:13;6.10;99.90
11446;DHT22;5779;64.178;15.432;2023-05-28T01:31:00;6.20;99.90
11446;DHT22;5779;64.178;15.432;2023-05-28T01:33:47;5.90;99.90
11446;DHT22;5779;64.178;15.432;2023-05-28T01:36:35;6.10;99.90
11446;DHT22;5779;64.178;15.432;2023-05-28T01:39:25;6.10;99.90
11446;DHT22;5779;64.178;15.432;2023-05-28T01:42:14;6.20;99.90
11446;DHT22;5779;64.178;15.432;2023-05-28T01:45:02;6.30;99.90
11446;DHT22;5779;64.178;15.432;2023-05-28T01:47:50;6.30;99.90
11446;DHT22;5779;64.178;15.432;2023-05-28T01:50:38;6.20;99.90
11446;DHT22;5779;64.178;15.432;2023-05-28T01:53:25;6.30;99.90
11446;DHT22;5779;64.178;15.432;2023-05-28T01:56:12;6.40;99.90
11446;DHT22;5779;64.178;15.432;2023-05-28T01:59:00;6.40;99.90
11446;DHT22;5779;64.178;15.432;2023-05-28T02:01:47;6.50;99.90
11446;DHT22;5779;64.178;15.432;2023-05-28T02:04:34;6.70;99.90
11446;DHT22;5779;64.178;15.432;2023-05-28T02:07:20;6.60;99.90
11446;DHT22;5779;64.178;15.432;2023-05-28T02:10:07;6.70;99.90
11446;DHT22;5779;64.178;15.432;2023-05-28T02:12:54;6.70;99.90
11446;DHT22;5779;64.178;15.432;2023-05-28T02:15:44;6.80;99.90
11446;DHT22;5779;64.178;15.432;2023-05-28T02:18:31;6.90;99.90
11446;DHT22;5779;64.178;15.432;2023-05-28T02:21:18;6.90;99.90
11446;DHT22;5779;64.178;15.432;2023-05-28T02:24:04;6.70;99.90
11446;DHT22;5779;64.178;15.432;2023-05-28T02:26:52;6.60;99.90
11446;DHT22;5779;64.178;15.432;2023-05-28T02:29:39;6.50;99.90
11446;DHT22;5779;64.178;15.432;2023-05-28T02:32:27;6.30;99.90
11446;DHT22;5779;64.178;15.432;2023-05-28T02:35:14;6.40;99.90
11446;DHT22;5779;64.178;15.432;2023-05-28T02:38:00;6.50;99.90
11446;DHT22;5779;64.178;15.432;2023-05-28T02:40:48;6.60;99.90
11446;DHT22;5779;64.178;15.432;2023-05-28T02:43:34;6.60;99.90
11446;DHT22;5779;64.178;15.432;2023-05-28T02:46:21;6.70;99.90
11446;DHT22;5779;64.178;15.432;2023-05-28T02:49:09;6.80;99.90
11446;DHT22;5779;64.178;15.432;2023-05-28T02:51:56;6.80;99.90
11446;DHT22;5779;64.178;15.432;2023-05-28T02:54:43;6.70;99.90
11446;DHT22;5779;64.178;15.432;2023-05-28T02:57:30;6.70;99.90
11446;DHT22;5779;64.178;15.432;2023-05-28T03:00:17;6.70;99.90
11446;DHT22;5779;64.178;15.432;2023-05-28T03:03:04;6.80;99.90
11446;DHT22;5779;64.178;15.432;2023-05-28T03:05:53;6.80;99.90
11446;DHT22;5779;64.178;15.432;2023-05-28T03:08:41;6.80;99.90
11446;DHT22;5779;64.178;15.432;2023-05-28T03:11:28;6.80;99.90
11446;DHT22;5779;64.178;15.432;2023-05-28T03:14:15;6.80;99.90
11446;DHT22;5779;64.178;15.432;2023-05-28T03:17:02;6.80;99.90
11446;DHT22;5779;64.178;15.432;2023-05-28T03:19:49;6.80;99.90
11446;DHT22;5779;64.178;15.432;2023-05-28T03:22:37;6.80;99.90
11446;DHT22;5779;64.178;15.432;2023-05-28T03:25:24;6.90;99.90
11446;DHT22;5779;64.178;15.432;2023-05-28T03:28:12;6.90;99.90
11446;DHT22;5779;64.178;15.432;2023-05-28T03:30:58;7.00;99.90
11446;DHT22;5779;64.178;15.432;2023-05-28T03:33:46;6.90;99.90
11446;DHT22;5779;64.178;15.432;2023-05-28T03:36:33;6.90;99.90
11446;DHT22;5779;64.178;15.432;2023-05-28T03:39:22;7.00;99.90
11446;DHT22;5779;64.178;15.432;2023-05-28T03:42:08;7.00;99.90
11446;DHT22;5779;64.178;15.432;2023-05-28T03:44:55;7.00;99.90
11446;DHT22;5779;64.178;15.432;2023-05-28T03:47:42;7.10;99.90
11446;DHT22;5779;64.178;15.432;2023-05-28T03:50:29;7.10;99.90
11446;DHT22;5779;64.178;15.432;2023-05-28T03:53:16;7.00;99.90
11446;DHT22;5779;64.178;15.432;2023-05-28T03:56:04;6.90;99.90
11446;DHT22;5779;64.178;15.432;2023-05-28T03:58:51;6.90;99.90
11446;DHT22;5779;64.178;15.432;2023-05-28T04:01:38;6.90;99.90
11446;DHT22;5779;64.178;15.432;2023-05-28T04:04:25;7.00;99.90
11446;DHT22;5779;64.178;15.432;2023-05-28T04:07:12;7.00;99.90
11446;DHT22;5779;64.178;15.432;2023-05-28T04:09:59;6.90;99.90
11446;DHT22;5779;64.178;15.432;2023-05-28T04:12:47;7.00;99.90
11446;DHT22;5779;64.178;15.432;2023-05-28T04:15:34;7.10;99.90
11446;DHT22;5779;64.178;15.432;2023-05-28T04:18:21;7.10;99.90
11446;DHT22;5779;64.178;15.432;2023-05-28T04:21:08;7.20;99.90
11446;DHT22;5779;64.178;15.432;2023-05-28T04:23:57;7.30;99.90
11446;DHT22;5779;64.178;15.432;2023-05-28T04:26:45;7.50;99.90
11446;DHT22;5779;64.178;15.432;2023-05-28T04:29:34;7.50;99.90
11446;DHT22;5779;64.178;15.432;2023-05-28T04:32:21;7.50;99.90
11446;DHT22;5779;64.178;15.432;2023-05-28T04:35:09;7.50;99.90
11446;DHT22;5779;64.178;15.432;2023-05-28T04:37:56;7.80;99.90
11446;DHT22;5779;64.178;15.432;2023-05-28T04:40:44;7.80;99.90
11446;DHT22;5779;64.178;15.432;2023-05-28T04:43:31;7.70;99.90
11446;DHT22;5779;64.178;15.432;2023-05-28T04:46:20;7.80;99.90
11446;DHT22;5779;64.178;15.432;2023-05-28T04:49:11;7.90;99.90
11446;DHT22;5779;64.178;15.432;2023-05-28T04:51:57;8.00;99.90
11446;DHT22;5779;64.178;15.432;2023-05-28T04:54:45;8.10;99.90
11446;DHT22;5779;64.178;15.432;2023-05-28T04:57:32;8.10;99.90
11446;DHT22;5779;64.178;15.432;2023-05-28T05:00:19;8.20;99.90
11446;DHT22;5779;64.178;15.432;2023-05-28T05:03:07;8.20;99.90
11446;DHT22;5779;64.178;15.432;2023-05-28T05:05:55;8.30;99.90
11446;DHT22;5779;64.178;15.432;2023-05-28T05:08:41;8.30;99.90
11446;DHT22;5779;64.178;15.432;2023-05-28T05:11:28;8.50;99.90
11446;DHT22;5779;64.178;15.432;2023-05-28T05:14:16;8.60;99.90
11446;DHT22;5779;64.178;15.432;2023-05-28T05:17:03;8.60;99.90
11446;DHT22;5779;64.178;15.432;2023-05-28T05:19:55;8.60;99.90
11446;DHT22;5779;64.178;15.432;2023-05-28T05:22:41;8.40;99.90
11446;DHT22;5779;64.178;15.432;2023-05-28T05:25:28;8.10;99.90
11446;DHT22;5779;64.178;15.432;2023-05-28T05:28:15;8.00;99.90
11446;DHT22;5779;64.178;15.432;2023-05-28T05:31:02;7.40;99.90
11446;DHT22;5779;64.178;15.432;2023-05-28T05:33:49;6.90;99.90
11446;DHT22;5779;64.178;15.432;2023-05-28T05:36:37;6.80;99.90
11446;DHT22;5779;64.178;15.432;2023-05-28T05:39:24;6.60;99.90
11446;DHT22;5779;64.178;15.432;2023-05-28T05:42:11;6.60;99.90
11446;DHT22;5779;64.178;15.432;2023-05-28T05:44:58;6.50;99.90
11446;DHT22;5779;64.178;15.432;2023-05-28T05:47:45;6.60;99.90
11446;DHT22;5779;64.178;15.432;2023-05-28T05:50:32;6.60;99.90
11446;DHT22;5779;64.178;15.432;2023-05-28T05:53:39;6.50;99.90
11446;DHT22;5779;64.178;15.432;2023-05-28T05:56:27;6.60;99.90
11446;DHT22;5779;64.178;15.432;2023-05-28T05:59:15;6.60;99.90
11446;DHT22;5779;64.178;15.432;2023-05-28T06:02:01;6.70;99.90
11446;DHT22;5779;64.178;15.432;2023-05-28T06:04:48;6.70;99.90
11446;DHT22;5779;64.178;15.432;2023-05-28T06:07:35;7.10;99.90
11446;DHT22;5779;64.178;15.432;2023-05-28T06:10:24;7.40;99.90
11446;DHT22;5779;64.178;15.432;2023-05-28T06:13:10;7.70;99.90
11446;DHT22;5779;64.178;15.432;2023-05-28T06:15:57;7.60;99.90
11446;DHT22;5779;64.178;15.432;2023-05-28T06:18:46;7.70;99.90
11446;DHT22;5779;64.178;15.432;2023-05-28T06:21:33;7.80;99.90
11446;DHT22;5779;64.178;15.432;2023-05-28T06:24:21;7.80;99.90
11446;DHT22;5779;64.178;15.432;2023-05-28T06:27:09;8.00;99.90
11446;DHT22;5779;64.178;15.432;2023-05-28T06:29:57;7.80;99.90
11446;DHT22;5779;64.178;15.432;2023-05-28T06:32:44;7.70;99.90
11446;DHT22;5779;64.178;15.432;2023-05-28T06:35:31;7.80;99.90
11446;DHT22;5779;64.178;15.432;2023-05-28T06:38:18;7.90;99.90
11446;DHT22;5779;64.178;15.432;2023-05-28T06:41:05;7.90;99.90
11446;DHT22;5779;64.178;15.432;2023-05-28T06:43:53;8.10;99.90
11446;DHT22;5779;64.178;15.432;2023-05-28T06:46:40;8.10;99.90
11446;DHT22;5779;64.178;15.432;2023-05-28T06:49:27;8.00;99.90
11446;DHT22;5779;64.178;15.432;2023-05-28T06:52:14;8.00;99.90
11446;DHT22;5779;64.178;15.432;2023-05-28T06:55:01;8.20;99.90
11446;DHT22;5779;64.178;15.432;2023-05-28T06:57:50;7.90;99.90
11446;DHT22;5779;64.178;15.432;2023-05-28T07:00:38;8.00;99.90
11446;DHT22;5779;64.178;15.432;2023-05-28T07:03:26;8.10;99.90
11446;DHT22;5779;64.178;15.432;2023-05-28T07:06:14;8.20;99.90
11446;DHT22;5779;64.178;15.432;2023-05-28T07:09:01;8.20;99.90
11446;DHT22;5779;64.178;15.432;2023-05-28T07:11:48;8.00;99.90
11446;DHT22;5779;64.178;15.432;2023-05-28T07:14:36;8.00;99.90
11446;DHT22;5779;64.178;15.432;2023-05-28T07:17:25;8.10;99.90
11446;DHT22;5779;64.178;15.432;2023-05-28T07:20:12;8.10;99.90
11446;DHT22;5779;64.178;15.432;2023-05-28T07:22:58;8.30;99.90
11446;DHT22;5779;64.178;15.432;2023-05-28T07:25:45;8.40;99.90
11446;DHT22;5779;64.178;15.432;2023-05-28T07:28:32;8.40;99.90
11446;DHT22;5779;64.178;15.432;2023-05-28T07:31:19;8.50;99.90
11446;DHT22;5779;64.178;15.432;2023-05-28T07:34:08;8.60;99.90
11446;DHT22;5779;64.178;15.432;2023-05-28T07:36:54;9.10;99.90
11446;DHT22;5779;64.178;15.432;2023-05-28T07:39:41;8.80;99.90
11446;DHT22;5779;64.178;15.432;2023-05-28T07:42:28;8.50;99.90
11446;DHT22;5779;64.178;15.432;2023-05-28T07:45:15;8.20;99.90
11446;DHT22;5779;64.178;15.432;2023-05-28T07:48:02;8.10;99.90
11446;DHT22;5779;64.178;15.432;2023-05-28T07:50:50;8.20;99.90
11446;DHT22;5779;64.178;15.432;2023-05-28T07:53:38;8.10;99.90
11446;DHT22;5779;64.178;15.432;2023-05-28T07:56:25;8.10;99.90
11446;DHT22;5779;64.178;15.432;2023-05-28T07:59:13;8.40;99.90
11446;DHT22;5779;64.178;15.432;2023-05-28T08:01:59;8.40;99.90
11446;DHT22;5779;64.178;15.432;2023-05-28T08:04:48;8.10;99.90
11446;DHT22;5779;64.178;15.432;2023-05-28T08:07:36;8.20;99.90
11446;DHT22;5779;64.178;15.432;2023-05-28T08:10:23;8.20;99.90
11446;DHT22;5779;64.178;15.432;2023-05-28T08:13:10;8.50;99.90
11446;DHT22;5779;64.178;15.432;2023-05-28T08:15:58;8.60;99.90
11446;DHT22;5779;64.178;15.432;2023-05-28T08:18:45;8.30;99.90
11446;DHT22;5779;64.178;15.432;2023-05-28T08:21:32;8.60;99.90
11446;DHT22;5779;64.178;15.432;2023-05-28T08:24:20;8.70;99.90
11446;DHT22;5779;64.178;15.432;2023-05-28T08:27:07;8.50;99.90
11446;DHT22;5779;64.178;15.432;2023-05-28T08:29:54;8.70;99.90
11446;DHT22;5779;64.178;15.432;2023-05-28T08:32:41;8.60;99.90
11446;DHT22;5779;64.178;15.432;2023-05-28T08:35:28;8.50;99.90
11446;DHT22;5779;64.178;15.432;2023-05-28T08:38:15;8.40;99.90
11446;DHT22;5779;64.178;15.432;2023-05-28T08:41:05;8.30;99.90
11446;DHT22;5779;64.178;15.432;2023-05-28T08:43:53;8.20;99.90
11446;DHT22;5779;64.178;15.432;2023-05-28T08:46:41;8.30;99.90
11446;DHT22;5779;64.178;15.432;2023-05-28T08:49:31;8.30;99.90
11446;DHT22;5779;64.178;15.432;2023-05-28T08:52:19;8.00;99.90
11446;DHT22;5779;64.178;15.432;2023-05-28T08:55:07;8.10;99.90
11446;DHT22;5779;64.178;15.432;2023-05-28T08:57:56;8.20;99.90
11446;DHT22;5779;64.178;15.432;2023-05-28T09:00:43;8.40;99.90
11446;DHT22;5779;64.178;15.432;2023-05-28T09:03:31;8.50;99.90
11446;DHT22;5779;64.178;15.432;2023-05-28T09:06:19;8.30;99.90
11446;DHT22;5779;64.178;15.432;2023-05-28T09:09:09;8.10;99.90
11446;DHT22;5779;64.178;15.432;2023-05-28T09:12:02;8.30;99.90
11446;DHT22;5779;64.178;15.432;2023-05-28T09:14:52;8.50;99.90
11446;DHT22;5779;64.178;15.432;2023-05-28T09:17:39;8.40;99.90
11446;DHT22;5779;64.178;15.432;2023-05-28T09:20:26;8.30;99.90
11446;DHT22;5779;64.178;15.432;2023-05-28T09:23:16;8.50;99.90
11446;DHT22;5779;64.178;15.432;2023-05-28T09:26:05;8.70;99.90
11446;DHT22;5779;64.178;15.432;2023-05-28T09:28:54;8.50;99.90
11446;DHT22;5779;64.178;15.432;2023-05-28T09:31:42;8.50;99.90
11446;DHT22;5779;64.178;15.432;2023-05-28T09:34:31;8.40;99.90
11446;DHT22;5779;64.178;15.432;2023-05-28T09:37:18;8.50;99.90
11446;DHT22;5779;64.178;15.432;2023-05-28T09:40:07;8.50;99.90
11446;DHT22;5779;64.178;15.432;2023-05-28T09:42:55;8.30;99.90
11446;DHT22;5779;64.178;15.432;2023-05-28T09:45:42;8.10;99.90
11446;DHT22;5779;64.178;15.432;2023-05-28T09:48:30;8.10;99.90
11446;DHT22;5779;64.178;15.432;2023-05-28T09:51:17;8.00;99.90
11446;DHT22;5779;64.178;15.432;2023-05-28T09:54:05;7.90;99.90
11446;DHT22;5779;64.178;15.432;2023-05-28T09:56:52;7.90;99.90
11446;DHT22;5779;64.178;15.432;2023-05-28T09:59:42;7.90;99.90
11446;DHT22;5779;64.178;15.432;2023-05-28T10:02:36;8.00;99.90
11446;DHT22;5779;64.178;15.432;2023-05-28T10:05:30;8.10;99.90
11446;DHT22;5779;64.178;15.432;2023-05-28T10:08:19;8.00;99.90
11446;DHT22;5779;64.178;15.432;2023-05-28T10:11:09;8.00;99.90
11446;DHT22;5779;64.178;15.432;2023-05-28T10:13:58;7.80;99.90
11446;DHT22;5779;64.178;15.432;2023-05-28T10:16:46;7.90;99.90
11446;DHT22;5779;64.178;15.432;2023-05-28T10:19:34;8.00;99.90
11446;DHT22;5779;64.178;15.432;2023-05-28T10:22:23;7.90;99.90
11446;DHT22;5779;64.178;15.432;2023-05-28T10:25:09;8.00;99.90
11446;DHT22;5779;64.178;15.432;2023-05-28T10:27:59;8.00;99.90
11446;DHT22;5779;64.178;15.432;2023-05-28T10:30:59;8.20;99.90
11446;DHT22;5779;64.178;15.432;2023-05-28T10:33:47;8.10;99.90
11446;DHT22;5779;64.178;15.432;2023-05-28T10:36:50;8.20;99.90
11446;DHT22;5779;64.178;15.432;2023-05-28T10:39:42;8.20;99.90
11446;DHT22;5779;64.178;15.432;2023-05-28T10:42:31;8.40;99.90
11446;DHT22;5779;64.178;15.432;2023-05-28T10:45:34;8.50;99.90
11446;DHT22;5779;64.178;15.432;2023-05-28T10:48:22;8.60;99.90
11446;DHT22;5779;64.178;15.432;2023-05-28T10:51:09;8.60;99.90
11446;DHT22;5779;64.178;15.432;2023-05-28T10:53:57;8.80;99.90
11446;DHT22;5779;64.178;15.432;2023-05-28T10:57:13;9.30;99.90
11446;DHT22;5779;64.178;15.432;2023-05-28T11:00:00;9.70;99.90
11446;DHT22;5779;64.178;15.432;2023-05-28T11:02:55;9.50;99.90
11446;DHT22;5779;64.178;15.432;2023-05-28T11:05:43;9.10;99.90
11446;DHT22;5779;64.178;15.432;2023-05-28T11:08:30;9.20;99.90
11446;DHT22;5779;64.178;15.432;2023-05-28T11:11:19;9.10;99.90
11446;DHT22;5779;64.178;15.432;2023-05-28T11:14:08;9.30;99.90
11446;DHT22;5779;64.178;15.432;2023-05-28T11:16:55;9.00;99.90
11446;DHT22;5779;64.178;15.432;2023-05-28T11:19:43;8.90;99.90
11446;DHT22;5779;64.178;15.432;2023-05-28T11:22:34;8.90;99.90
11446;DHT22;5779;64.178;15.432;2023-05-28T11:25:22;8.90;99.90
11446;DHT22;5779;64.178;15.432;2023-05-28T11:28:10;8.80;99.90
11446;DHT22;5779;64.178;15.432;2023-05-28T11:30:59;9.10;99.90
11446;DHT22;5779;64.178;15.432;2023-05-28T11:33:48;8.90;99.90
11446;DHT22;5779;64.178;15.432;2023-05-28T11:36:40;8.90;99.90
11446;DHT22;5779;64.178;15.432;2023-05-28T11:39:27;9.00;99.90
11446;DHT22;5779;64.178;15.432;2023-05-28T11:42:14;9.20;99.90
11446;DHT22;5779;64.178;15.432;2023-05-28T11:45:00;9.80;99.90
11446;DHT22;5779;64.178;15.432;2023-05-28T11:47:49;9.80;99.90
11446;DHT22;5779;64.178;15.432;2023-05-28T11:50:36;9.50;99.90
11446;DHT22;5779;64.178;15.432;2023-05-28T11:53:23;9.20;99.90
11446;DHT22;5779;64.178;15.432;2023-05-28T11:56:11;9.40;99.90
11446;DHT22;5779;64.178;15.432;2023-05-28T11:58:58;9.40;99.90
11446;DHT22;5779;64.178;15.432;2023-05-28T12:01:45;9.50;99.90
11446;DHT22;5779;64.178;15.432;2023-05-28T12:04:33;9.20;99.90
11446;DHT22;5779;64.178;15.432;2023-05-28T12:07:20;8.90;99.90
11446;DHT22;5779;64.178;15.432;2023-05-28T12:10:08;9.20;99.90
11446;DHT22;5779;64.178;15.432;2023-05-28T12:12:56;9.40;99.90
11446;DHT22;5779;64.178;15.432;2023-05-28T12:15:45;9.30;99.90
11446;DHT22;5779;64.178;15.432;2023-05-28T12:18:32;9.10;99.90
11446;DHT22;5779;64.178;15.432;2023-05-28T12:21:20;9.20;99.90
11446;DHT22;5779;64.178;15.432;2023-05-28T12:24:16;9.00;99.90
11446;DHT22;5779;64.178;15.432;2023-05-28T12:27:03;8.70;99.90
11446;DHT22;5779;64.178;15.432;2023-05-28T12:29:51;8.40;99.90
11446;DHT22;5779;64.178;15.432;2023-05-28T12:32:38;7.80;99.90
11446;DHT22;5779;64.178;15.432;2023-05-28T12:35:25;7.70;99.90
11446;DHT22;5779;64.178;15.432;2023-05-28T12:38:14;7.70;99.90
11446;DHT22;5779;64.178;15.432;2023-05-28T12:41:01;7.70;99.90
11446;DHT22;5779;64.178;15.432;2023-05-28T12:43:49;7.70;99.90
11446;DHT22;5779;64.178;15.432;2023-05-28T12:46:36;8.20;99.90
11446;DHT22;5779;64.178;15.432;2023-05-28T12:49:23;8.40;99.90
11446;DHT22;5779;64.178;15.432;2023-05-28T12:52:12;8.40;99.90
11446;DHT22;5779;64.178;15.432;2023-05-28T12:55:00;8.30;99.90
11446;DHT22;5779;64.178;15.432;2023-05-28T12:57:47;8.60;99.90
11446;DHT22;5779;64.178;15.432;2023-05-28T13:00:34;8.80;99.90
11446;DHT22;5779;64.178;15.432;2023-05-28T13:03:21;9.10;99.90
11446;DHT22;5779;64.178;15.432;2023-05-28T13:06:08;9.50;99.90
11446;DHT22;5779;64.178;15.432;2023-05-28T13:08:56;9.50;99.90
11446;DHT22;5779;64.178;15.432;2023-05-28T13:11:45;9.60;99.90
11446;DHT22;5779;64.178;15.432;2023-05-28T13:14:31;9.40;99.90
11446;DHT22;5779;64.178;15.432;2023-05-28T13:17:19;9.20;99.90
11446;DHT22;5779;64.178;15.432;2023-05-28T13:20:07;8.90;99.90
11446;DHT22;5779;64.178;15.432;2023-05-28T13:22:55;8.70;99.90
11446;DHT22;5779;64.178;15.432;2023-05-28T13:25:42;8.50;99.90
11446;DHT22;5779;64.178;15.432;2023-05-28T13:28:30;8.40;99.90
11446;DHT22;5779;64.178;15.432;2023-05-28T13:31:17;8.30;99.90
11446;DHT22;5779;64.178;15.432;2023-05-28T13:34:04;8.20;99.90
11446;DHT22;5779;64.178;15.432;2023-05-28T13:36:51;8.20;99.90
11446;DHT22;5779;64.178;15.432;2023-05-28T13:39:38;8.10;99.90
11446;DHT22;5779;64.178;15.432;2023-05-28T13:42:25;8.30;99.90
11446;DHT22;5779;64.178;15.432;2023-05-28T13:45:14;8.20;99.90
11446;DHT22;5779;64.178;15.432;2023-05-28T13:48:01;8.20;99.90
11446;DHT22;5779;64.178;15.432;2023-05-28T13:50:49;8.30;99.90
11446;DHT22;5779;64.178;15.432;2023-05-28T13:53:35;8.50;99.90
11446;DHT22;5779;64.178;15.432;2023-05-28T13:56:22;8.80;99.90
11446;DHT22;5779;64.178;15.432;2023-05-28T13:59:09;8.70;99.90
11446;DHT22;5779;64.178;15.432;2023-05-28T14:02:00;8.60;99.90
11446;DHT22;5779;64.178;15.432;2023-05-28T14:04:47;8.30;99.90
11446;DHT22;5779;64.178;15.432;2023-05-28T14:07:34;8.10;99.90
11446;DHT22;5779;64.178;15.432;2023-05-28T14:10:21;8.20;99.90
11446;DHT22;5779;64.178;15.432;2023-05-28T14:13:08;8.30;99.90
11446;DHT22;5779;64.178;15.432;2023-05-28T14:16:02;8.40;99.90
11446;DHT22;5779;64.178;15.432;2023-05-28T14:18:50;8.50;99.90
11446;DHT22;5779;64.178;15.432;2023-05-28T14:21:37;8.70;99.90
11446;DHT22;5779;64.178;15.432;2023-05-28T14:24:24;8.70;99.90
11446;DHT22;5779;64.178;15.432;2023-05-28T14:27:10;8.60;99.90
11446;DHT22;5779;64.178;15.432;2023-05-28T14:29:57;8.40;99.90
11446;DHT22;5779;64.178;15.432;2023-05-28T14:32:44;8.30;99.90
11446;DHT22;5779;64.178;15.432;2023-05-28T14:35:33;8.50;99.90
11446;DHT22;5779;64.178;15.432;2023-05-28T14:38:19;8.50;99.90
11446;DHT22;5779;64.178;15.432;2023-05-28T14:41:06;8.30;99.90
11446;DHT22;5779;64.178;15.432;2023-05-28T14:43:53;8.80;99.90
11446;DHT22;5779;64.178;15.432;2023-05-28T14:46:40;9.00;99.90
11446;DHT22;5779;64.178;15.432;2023-05-28T14:49:27;8.70;99.90
11446;DHT22;5779;64.178;15.432;2023-05-28T14:52:33;8.60;99.90
11446;DHT22;5779;64.178;15.432;2023-05-28T14:55:20;8.50;99.90
11446;DHT22;5779;64.178;15.432;2023-05-28T14:58:07;8.40;99.90
11446;DHT22;5779;64.178;15.432;2023-05-28T15:00:53;8.80;99.90
11446;DHT22;5779;64.178;15.432;2023-05-28T15:03:40;8.40;99.90
11446;DHT22;5779;64.178;15.432;2023-05-28T15:06:27;8.60;99.90
11446;DHT22;5779;64.178;15.432;2023-05-28T15:09:16;8.70;99.90
11446;DHT22;5779;64.178;15.432;2023-05-28T15:12:03;8.70;99.90
11446;DHT22;5779;64.178;15.432;2023-05-28T15:14:51;8.50;99.90
11446;DHT22;5779;64.178;15.432;2023-05-28T15:17:37;8.70;99.90
11446;DHT22;5779;64.178;15.432;2023-05-28T15:20:24;8.60;99.90
11446;DHT22;5779;64.178;15.432;2023-05-28T15:23:11;8.30;99.90
11446;DHT22;5779;64.178;15.432;2023-05-28T15:26:00;8.10;99.90
11446;DHT22;5779;64.178;15.432;2023-05-28T15:28:47;8.10;99.90
11446;DHT22;5779;64.178;15.432;2023-05-28T15:31:34;8.40;99.90
11446;DHT22;5779;64.178;15.432;2023-05-28T15:34:23;8.30;99.90
11446;DHT22;5779;64.178;15.432;2023-05-28T15:37:10;8.30;99.90
11446;DHT22;5779;64.178;15.432;2023-05-28T15:39:58;8.30;99.90
11446;DHT22;5779;64.178;15.432;2023-05-28T15:42:48;8.30;99.90
11446;DHT22;5779;64.178;15.432;2023-05-28T15:45:36;8.30;99.90
11446;DHT22;5779;64.178;15.432;2023-05-28T15:48:23;8.00;99.90
11446;DHT22;5779;64.178;15.432;2023-05-28T15:51:11;8.30;99.90
11446;DHT22;5779;64.178;15.432;2023-05-28T15:53:59;8.20;99.90
11446;DHT22;5779;64.178;15.432;2023-05-28T15:56:46;7.90;99.90
11446;DHT22;5779;64.178;15.432;2023-05-28T15:59:36;7.80;99.90
11446;DHT22;5779;64.178;15.432;2023-05-28T16:02:27;7.60;99.90
11446;DHT22;5779;64.178;15.432;2023-05-28T16:05:16;7.70;99.90
11446;DHT22;5779;64.178;15.432;2023-05-28T16:08:04;8.10;99.90
11446;DHT22;5779;64.178;15.432;2023-05-28T16:10:51;7.90;99.90
11446;DHT22;5779;64.178;15.432;2023-05-28T16:13:40;7.80;99.90
11446;DHT22;5779;64.178;15.432;2023-05-28T16:16:28;7.70;99.90
11446;DHT22;5779;64.178;15.432;2023-05-28T16:19:15;7.70;99.90
11446;DHT22;5779;64.178;15.432;2023-05-28T16:22:03;7.60;99.90
11446;DHT22;5779;64.178;15.432;2023-05-28T16:24:50;8.00;99.90
11446;DHT22;5779;64.178;15.432;2023-05-28T16:27:38;8.10;99.90
11446;DHT22;5779;64.178;15.432;2023-05-28T16:30:25;8.20;99.90
11446;DHT22;5779;64.178;15.432;2023-05-28T16:33:14;8.20;99.90
11446;DHT22;5779;64.178;15.432;2023-05-28T16:36:01;8.10;99.90
11446;DHT22;5779;64.178;15.432;2023-05-28T16:38:49;8.50;99.90
11446;DHT22;5779;64.178;15.432;2023-05-28T16:41:38;8.20;99.90
11446;DHT22;5779;64.178;15.432;2023-05-28T16:44:25;8.30;99.90
11446;DHT22;5779;64.178;15.432;2023-05-28T16:47:12;8.50;99.90
11446;DHT22;5779;64.178;15.432;2023-05-28T16:50:01;8.10;99.90
11446;DHT22;5779;64.178;15.432;2023-05-28T16:52:48;8.10;99.90
11446;DHT22;5779;64.178;15.432;2023-05-28T16:55:35;7.90;99.90
11446;DHT22;5779;64.178;15.432;2023-05-28T16:58:22;8.30;99.90
11446;DHT22;5779;64.178;15.432;2023-05-28T17:01:09;8.20;99.90
11446;DHT22;5779;64.178;15.432;2023-05-28T17:03:57;8.40;99.90
11446;DHT22;5779;64.178;15.432;2023-05-28T17:06:52;8.60;99.90
11446;DHT22;5779;64.178;15.432;2023-05-28T17:09:40;8.40;99.90
11446;DHT22;5779;64.178;15.432;2023-05-28T17:12:29;8.10;99.90
11446;DHT22;5779;64.178;15.432;2023-05-28T17:15:16;7.90;99.90
11446;DHT22;5779;64.178;15.432;2023-05-28T17:18:03;8.10;99.90
11446;DHT22;5779;64.178;15.432;2023-05-28T17:20:51;7.60;99.90
11446;DHT22;5779;64.178;15.432;2023-05-28T17:23:39;7.50;99.90
11446;DHT22;5779;64.178;15.432;2023-05-28T17:26:27;7.60;99.90
11446;DHT22;5779;64.178;15.432;2023-05-28T17:29:14;8.00;99.90
11446;DHT22;5779;64.178;15.432;2023-05-28T17:32:01;7.60;99.90
11446;DHT22;5779;64.178;15.432;2023-05-28T17:34:48;7.80;99.90
11446;DHT22;5779;64.178;15.432;2023-05-28T17:37:35;7.70;99.90
11446;DHT22;5779;64.178;15.432;2023-05-28T17:40:24;7.40;99.90
11446;DHT22;5779;64.178;15.432;2023-05-28T17:43:11;7.50;99.90
11446;DHT22;5779;64.178;15.432;2023-05-28T17:45:58;7.50;99.90
11446;DHT22;5779;64.178;15.432;2023-05-28T17:48:48;7.20;99.90
11446;DHT22;5779;64.178;15.432;2023-05-28T17:51:37;7.10;99.90
11446;DHT22;5779;64.178;15.432;2023-05-28T17:54:25;7.00;99.90
11446;DHT22;5779;64.178;15.432;2023-05-28T17:57:14;6.90;99.90